createdAt,value
2016-12-29T00:00:11.986Z,0
2016-12-29T00:01:45.363Z,0
2016-12-29T00:03:19.352Z,0
2016-12-29T00:05:12.375Z,0
2016-12-29T00:06:46.651Z,0
2016-12-29T00:08:01.157Z,0
2016-12-29T00:09:54.484Z,0
2016-12-29T00:11:27.850Z,0
2016-12-29T00:13:02.042Z,0
2016-12-29T00:14:35.661Z,0
2016-12-29T00:16:10.236Z,0
2016-12-29T00:17:44.223Z,0
2016-12-29T00:19:18.978Z,0
2016-12-29T00:20:52.512Z,0
2016-12-29T00:22:26.339Z,0
2016-12-29T00:23:56.644Z,0
2016-12-29T00:25:30.368Z,0
2016-12-29T00:27:04.155Z,0
2016-12-29T00:28:38.150Z,0
2016-12-29T00:30:11.767Z,0
2016-12-29T00:31:45.415Z,0
2016-12-29T00:33:19.026Z,0
2016-12-29T00:34:52.241Z,0
2016-12-29T00:36:25.573Z,0
2016-12-29T00:38:18.268Z,0
2016-12-29T00:39:52.803Z,0
2016-12-29T00:41:27.055Z,0
2016-12-29T00:43:00.758Z,0
2016-12-29T00:44:34.334Z,0
2016-12-29T00:46:08.359Z,0
2016-12-29T00:47:43.054Z,0
2016-12-29T00:49:17.995Z,0
2016-12-29T00:50:52.141Z,0
2016-12-29T00:52:26.597Z,0
2016-12-29T00:54:19.806Z,0
2016-12-29T00:55:54.066Z,0
2016-12-29T00:57:29.851Z,0
2016-12-29T00:59:03.247Z,0
2016-12-29T01:00:36.815Z,0
2016-12-29T01:02:10.505Z,0
2016-12-29T01:03:44.795Z,0
2016-12-29T01:06:50.296Z,0
2016-12-29T01:08:23.890Z,0
2016-12-29T01:09:57.556Z,0
2016-12-29T01:11:31.457Z,0
2016-12-29T01:13:04.837Z,0
2016-12-29T01:14:38.955Z,0
2016-12-29T01:16:12.556Z,0
2016-12-29T01:18:05.488Z,0
2016-12-29T01:19:38.721Z,0
2016-12-29T01:21:12.727Z,0
2016-12-29T01:22:46.516Z,0
2016-12-29T01:24:20.552Z,0
2016-12-29T01:25:53.774Z,0
2016-12-29T01:27:27.277Z,0
2016-12-29T01:28:55.735Z,0
2016-12-29T01:30:10.048Z,0
2016-12-29T01:31:39.140Z,0
2016-12-29T01:33:12.415Z,0
2016-12-29T01:34:46.240Z,0
2016-12-29T01:36:19.593Z,0
2016-12-29T01:37:52.892Z,0
2016-12-29T01:39:27.095Z,0
2016-12-29T01:41:00.914Z,0
2016-12-29T01:42:53.477Z,0
2016-12-29T01:44:34.984Z,0
2016-12-29T01:46:08.259Z,0
2016-12-29T01:47:42.331Z,0
2016-12-29T01:49:16.311Z,0
2016-12-29T01:50:49.590Z,0
2016-12-29T01:52:23.052Z,0
2016-12-29T01:54:16.458Z,0
2016-12-29T01:55:49.732Z,0
2016-12-29T01:57:22.995Z,0
2016-12-29T01:58:51.389Z,0
2016-12-29T02:00:05.774Z,0
2016-12-29T02:01:39.107Z,0
2016-12-29T02:03:12.590Z,0
2016-12-29T02:04:45.864Z,0
2016-12-29T02:06:20.081Z,0
2016-12-29T02:07:48.267Z,0
2016-12-29T02:09:21.564Z,0
2016-12-29T02:10:55.065Z,0
2016-12-29T02:12:28.890Z,0
2016-12-29T02:14:02.218Z,0
2016-12-29T02:15:35.772Z,0
2016-12-29T02:17:09.489Z,0
2016-12-29T02:18:43.016Z,0
2016-12-29T02:20:16.421Z,0
2016-12-29T02:22:09.607Z,0
2016-12-29T02:23:43.092Z,0
2016-12-29T02:25:16.665Z,0
2016-12-29T02:26:49.899Z,0
2016-12-29T02:28:23.130Z,0
2016-12-29T02:29:56.850Z,0
2016-12-29T02:31:30.461Z,0
2016-12-29T02:33:03.683Z,0
2016-12-29T02:34:39.199Z,0
2016-12-29T02:36:13.241Z,0
2016-12-29T02:37:47.034Z,0
2016-12-29T02:39:20.270Z,0
2016-12-29T02:40:53.567Z,0
2016-12-29T02:42:26.895Z,0
2016-12-29T02:44:00.683Z,0
2016-12-29T02:45:33.962Z,0
2016-12-29T02:47:07.777Z,0
2016-12-29T02:48:41.505Z,0
2016-12-29T02:50:34.694Z,0
2016-12-29T02:52:08.418Z,0
2016-12-29T02:53:42.950Z,0
2016-12-29T02:55:16.185Z,0
2016-12-29T02:56:49.724Z,0
2016-12-29T02:58:24.488Z,0
2016-12-29T02:59:57.707Z,0
2016-12-29T03:01:31.445Z,0
2016-12-29T03:03:04.951Z,0
2016-12-29T03:04:38.297Z,0
2016-12-29T03:06:11.628Z,0
2016-12-29T03:07:45.579Z,0
2016-12-29T03:09:19.312Z,0
2016-12-29T03:10:52.661Z,0
2016-12-29T03:12:26.117Z,0
2016-12-29T03:13:59.358Z,0
2016-12-29T03:15:33.487Z,0
2016-12-29T03:17:07.064Z,0
2016-12-29T03:18:59.770Z,0
2016-12-29T03:20:33.014Z,0
2016-12-29T03:22:06.583Z,0
2016-12-29T03:23:40.121Z,0
2016-12-29T03:25:13.629Z,0
2016-12-29T03:26:47.641Z,0
2016-12-29T03:28:21.138Z,0
2016-12-29T03:29:54.544Z,0
2016-12-29T03:31:28.073Z,0
2016-12-29T03:33:28.856Z,0
2016-12-29T03:35:02.641Z,0
2016-12-29T03:36:35.938Z,0
2016-12-29T03:38:09.473Z,0
2016-12-29T03:39:43.081Z,0
2016-12-29T03:41:16.649Z,0
2016-12-29T03:42:50.192Z,0
2016-12-29T03:44:23.757Z,0
2016-12-29T03:45:57.141Z,0
2016-12-29T03:47:30.960Z,0
2016-12-29T03:49:04.190Z,0
2016-12-29T03:50:37.692Z,0
2016-12-29T03:52:11.782Z,0
2016-12-29T03:53:45.385Z,0
2016-12-29T03:55:19.147Z,0
2016-12-29T03:56:52.996Z,0
2016-12-29T03:58:26.572Z,0
2016-12-29T04:00:19.518Z,0
2016-12-29T04:01:53.698Z,0
2016-12-29T04:03:26.991Z,0
2016-12-29T04:04:55.539Z,0
2016-12-29T04:06:10.534Z,0
2016-12-29T04:07:44.038Z,0
2016-12-29T04:09:17.336Z,0
2016-12-29T04:11:10.583Z,0
2016-12-29T04:12:46.880Z,0
2016-12-29T04:14:20.191Z,0
2016-12-29T04:15:53.424Z,0
2016-12-29T04:17:27.143Z,0
2016-12-29T04:19:00.677Z,0
2016-12-29T04:20:34.068Z,0
2016-12-29T04:22:07.334Z,0
2016-12-29T04:23:40.606Z,0
2016-12-29T04:25:14.879Z,0
2016-12-29T04:26:48.459Z,0
2016-12-29T04:28:21.792Z,0
2016-12-29T04:29:55.156Z,0
2016-12-29T04:31:28.955Z,0
2016-12-29T04:33:02.798Z,0
2016-12-29T04:34:36.425Z,0
2016-12-29T04:36:32.735Z,0
2016-12-29T04:38:11.658Z,0
2016-12-29T04:40:10.298Z,0
2016-12-29T04:41:48.313Z,0
2016-12-29T04:43:44.544Z,0
2016-12-29T04:45:20.889Z,0
2016-12-29T04:46:54.491Z,0
2016-12-29T04:48:27.928Z,0
2016-12-29T04:50:02.098Z,0
2016-12-29T04:51:36.633Z,0
2016-12-29T04:53:09.920Z,0
2016-12-29T04:54:43.458Z,0
2016-12-29T04:56:16.994Z,0
2016-12-29T04:57:50.313Z,0
2016-12-29T04:59:24.069Z,0
2016-12-29T05:00:57.347Z,0
2016-12-29T05:02:50.720Z,0
2016-12-29T05:04:24.880Z,0
2016-12-29T05:05:58.394Z,0
2016-12-29T05:07:31.725Z,0
2016-12-29T05:09:05.462Z,0
2016-12-29T05:10:38.762Z,0
2016-12-29T05:12:12.291Z,0
2016-12-29T05:13:45.538Z,0
2016-12-29T05:15:19.183Z,0
2016-12-29T05:16:52.792Z,0
2016-12-29T05:18:26.030Z,0
2016-12-29T05:19:59.980Z,0
2016-12-29T05:21:33.565Z,0
2016-12-29T05:23:07.514Z,0
2016-12-29T05:24:40.996Z,0
2016-12-29T05:26:14.854Z,0
2016-12-29T05:27:48.557Z,0
2016-12-29T05:29:22.724Z,0
2016-12-29T05:30:56.324Z,0
2016-12-29T05:32:25.118Z,0
2016-12-29T05:33:58.369Z,0
2016-12-29T05:35:31.614Z,0
2016-12-29T05:37:04.968Z,0
2016-12-29T05:38:40.902Z,0
2016-12-29T05:40:14.400Z,0
2016-12-29T05:42:07.144Z,0
2016-12-29T05:43:41.108Z,0
2016-12-29T05:45:14.735Z,0
2016-12-29T05:46:48.235Z,0
2016-12-29T05:48:21.903Z,0
2016-12-29T05:49:55.762Z,0
2016-12-29T05:51:27.393Z,0
2016-12-29T05:53:00.981Z,0
2016-12-29T05:54:34.947Z,0
2016-12-29T05:56:08.977Z,0
2016-12-29T05:57:42.769Z,0
2016-12-29T05:59:11.065Z,0
2016-12-29T06:00:44.474Z,0
2016-12-29T06:02:17.726Z,0
2016-12-29T06:03:51.735Z,0
2016-12-29T06:05:24.977Z,0
2016-12-29T06:06:58.710Z,0
2016-12-29T06:08:32.074Z,0
2016-12-29T06:10:05.882Z,0
2016-12-29T06:11:39.484Z,0
2016-12-29T06:13:12.811Z,0
2016-12-29T06:14:46.143Z,0
2016-12-29T06:16:19.718Z,0
2016-12-29T06:17:54.322Z,0
2016-12-29T06:19:27.845Z,0
2016-12-29T06:21:01.473Z,0
2016-12-29T06:22:34.988Z,0
2016-12-29T06:24:08.253Z,0
2016-12-29T06:25:41.752Z,0
2016-12-29T06:27:15.408Z,0
2016-12-29T06:29:08.663Z,0
2016-12-29T06:30:41.935Z,0
2016-12-29T06:32:15.267Z,0
2016-12-29T06:33:49.030Z,0
2016-12-29T06:35:23.027Z,0
2016-12-29T06:36:56.375Z,0
2016-12-29T06:38:29.663Z,0
2016-12-29T06:40:03.158Z,0
2016-12-29T06:41:36.972Z,0
2016-12-29T06:43:10.261Z,0
2016-12-29T06:44:43.584Z,0
2016-12-29T06:46:16.893Z,0
2016-12-29T06:47:45.496Z,0
2016-12-29T06:49:19.430Z,0
2016-12-29T06:50:52.696Z,4
2016-12-29T06:52:26.477Z,0
2016-12-29T06:54:00.474Z,4
2016-12-29T06:55:29.845Z,4
2016-12-29T06:57:03.357Z,4
2016-12-29T06:58:36.757Z,4
2016-12-29T07:00:10.652Z,8
2016-12-29T07:01:44.409Z,12
2016-12-29T07:03:15.116Z,8
2016-12-29T07:04:26.822Z,16
2016-12-29T07:05:57.542Z,16
2016-12-29T07:07:28.476Z,20
2016-12-29T07:09:00.784Z,28
2016-12-29T07:10:31.436Z,32
2016-12-29T07:12:02.751Z,36
2016-12-29T07:13:36.551Z,44
2016-12-29T07:15:10.513Z,52
2016-12-29T07:16:44.452Z,60
2016-12-29T07:18:18.022Z,76
2016-12-29T07:19:51.349Z,84
2016-12-29T07:21:25.296Z,100
2016-12-29T07:22:59.050Z,112
2016-12-29T07:24:32.536Z,128
2016-12-29T07:26:05.806Z,144
2016-12-29T07:27:41.374Z,156
2016-12-29T07:29:15.356Z,176
2016-12-29T07:31:08.522Z,196
2016-12-29T07:32:42.575Z,216
2016-12-29T07:34:15.951Z,236
2016-12-29T07:35:49.177Z,260
2016-12-29T07:37:23.527Z,284
2016-12-29T07:38:56.871Z,304
2016-12-29T07:40:30.588Z,324
2016-12-29T07:42:04.317Z,348
2016-12-29T07:43:37.875Z,368
2016-12-29T07:45:11.910Z,396
2016-12-29T07:46:45.199Z,420
2016-12-29T07:48:18.615Z,444
2016-12-29T07:49:52.183Z,468
2016-12-29T07:51:26.203Z,492
2016-12-29T07:52:59.469Z,512
2016-12-29T07:54:32.784Z,532
2016-12-29T07:56:06.501Z,556
2016-12-29T07:57:41.625Z,576
2016-12-29T07:59:14.872Z,600
2016-12-29T08:00:48.494Z,620
2016-12-29T08:02:22.204Z,640
2016-12-29T08:03:55.808Z,660
2016-12-29T08:05:29.091Z,680
2016-12-29T08:07:25.009Z,704
2016-12-29T08:08:58.396Z,728
2016-12-29T08:10:31.916Z,744
2016-12-29T08:12:05.503Z,760
2016-12-29T08:13:41.033Z,780
2016-12-29T08:15:15.672Z,796
2016-12-29T08:16:50.777Z,816
2016-12-29T08:18:45.014Z,832
2016-12-29T08:20:20.512Z,852
2016-12-29T08:21:55.802Z,868
2016-12-29T08:23:30.931Z,884
2016-12-29T08:25:27.526Z,900
2016-12-29T08:27:04.353Z,920
2016-12-29T08:28:38.344Z,936
2016-12-29T08:30:12.089Z,948
2016-12-29T08:31:45.969Z,964
2016-12-29T08:33:19.732Z,976
2016-12-29T08:34:53.760Z,992
2016-12-29T08:36:27.095Z,1008
2016-12-29T08:38:00.590Z,1020
2016-12-29T08:39:34.114Z,1036
2016-12-29T08:41:07.401Z,1052
2016-12-29T08:43:02.657Z,1092
2016-12-29T08:44:36.255Z,1132
2016-12-29T08:46:09.753Z,1100
2016-12-29T08:47:43.317Z,1108
2016-12-29T08:49:16.684Z,1116
2016-12-29T08:50:50.234Z,1128
2016-12-29T08:52:23.497Z,1136
2016-12-29T08:53:57.063Z,1148
2016-12-29T08:55:30.316Z,1160
2016-12-29T08:57:03.867Z,1172
2016-12-29T08:58:37.451Z,1188
2016-12-29T09:00:11.098Z,1196
2016-12-29T09:01:44.354Z,1204
2016-12-29T09:03:17.993Z,1216
2016-12-29T09:04:52.445Z,1228
2016-12-29T09:06:47.595Z,1240
2016-12-29T09:08:21.496Z,1248
2016-12-29T09:09:55.301Z,1260
2016-12-29T09:11:28.653Z,1272
2016-12-29T09:13:02.029Z,1280
2016-12-29T09:14:35.512Z,1292
2016-12-29T09:16:04.218Z,1300
2016-12-29T09:17:18.369Z,1308
2016-12-29T09:19:11.355Z,1312
2016-12-29T09:20:45.024Z,1344
2016-12-29T09:22:18.846Z,1412
2016-12-29T09:23:52.944Z,1516
2016-12-29T09:25:26.493Z,1516
2016-12-29T09:26:59.747Z,1420
2016-12-29T09:28:33.239Z,1368
2016-12-29T09:30:06.989Z,1372
2016-12-29T09:32:07.015Z,1384
2016-12-29T09:34:41.329Z,1396
2016-12-29T09:36:23.880Z,1436
2016-12-29T09:38:17.956Z,1508
2016-12-29T09:39:52.435Z,1456
2016-12-29T09:41:25.712Z,1432
2016-12-29T09:42:59.945Z,1424
2016-12-29T09:45:34.156Z,1432
2016-12-29T09:47:41.450Z,1440
2016-12-29T09:49:42.695Z,1448
2016-12-29T09:51:22.062Z,1452
2016-12-29T09:53:25.013Z,1456
2016-12-29T09:55:59.956Z,1460
2016-12-29T09:58:00.294Z,1464
2016-12-29T10:00:00.942Z,1464
2016-12-29T10:02:06.747Z,1468
2016-12-29T10:03:47.984Z,1468
2016-12-29T10:05:40.948Z,1472
2016-12-29T10:07:14.921Z,1472
2016-12-29T10:08:48.464Z,1476
2016-12-29T10:10:28.983Z,1476
2016-12-29T10:12:54.613Z,1480
2016-12-29T10:14:35.626Z,1484
2016-12-29T10:16:09.586Z,1484
2016-12-29T10:17:43.285Z,1488
2016-12-29T10:19:42.446Z,1488
2016-12-29T10:21:47.648Z,1492
2016-12-29T10:23:22.823Z,1496
2016-12-29T10:25:27.362Z,1492
2016-12-29T10:27:34.449Z,1492
2016-12-29T10:29:34.037Z,1492
2016-12-29T10:31:41.382Z,1500
2016-12-29T10:35:51.596Z,1500
2016-12-29T10:37:50.466Z,1492
2016-12-29T10:39:55.170Z,1492
2016-12-29T10:42:06.024Z,1492
2016-12-29T10:44:32.524Z,1488
2016-12-29T10:46:41.039Z,1480
2016-12-29T10:48:43.076Z,1484
2016-12-29T10:50:48.256Z,1480
2016-12-29T10:52:49.196Z,1480
2016-12-29T10:54:52.027Z,1480
2016-12-29T10:56:30.453Z,1480
2016-12-29T10:58:04.044Z,1468
2016-12-29T10:59:37.377Z,1468
2016-12-29T11:01:13.647Z,1472
2016-12-29T11:03:06.672Z,1476
2016-12-29T11:04:40.128Z,1472
2016-12-29T11:06:09.068Z,1464
2016-12-29T11:07:23.661Z,1464
2016-12-29T11:08:57.701Z,1468
2016-12-29T11:10:31.274Z,1468
2016-12-29T11:12:04.707Z,1464
2016-12-29T11:13:57.496Z,1464
2016-12-29T11:15:31.282Z,1464
2016-12-29T11:17:04.677Z,1468
2016-12-29T11:18:38.766Z,1460
2016-12-29T11:20:12.044Z,1464
2016-12-29T11:21:46.308Z,1472
2016-12-29T11:23:20.084Z,1472
2016-12-29T11:24:53.824Z,1468
2016-12-29T11:26:27.190Z,1468
2016-12-29T11:27:56.072Z,1468
2016-12-29T11:29:29.465Z,1476
2016-12-29T11:31:02.721Z,1476
2016-12-29T11:32:35.989Z,1476
2016-12-29T11:34:09.586Z,1472
2016-12-29T11:35:42.830Z,1472
2016-12-29T11:37:16.387Z,1476
2016-12-29T11:38:49.796Z,1472
2016-12-29T11:40:23.929Z,1476
2016-12-29T11:41:57.781Z,1476
2016-12-29T11:43:31.130Z,1476
2016-12-29T11:45:04.392Z,1476
2016-12-29T11:46:38.021Z,1480
2016-12-29T11:48:11.319Z,1476
2016-12-29T11:49:44.600Z,1476
2016-12-29T11:51:18.131Z,1476
2016-12-29T11:52:51.680Z,1476
2016-12-29T11:54:25.067Z,1472
2016-12-29T11:55:58.626Z,1476
2016-12-29T11:57:32.354Z,1476
2016-12-29T11:59:06.188Z,1476
2016-12-29T12:00:39.725Z,1468
2016-12-29T12:02:08.537Z,1472
2016-12-29T12:04:06.359Z,1476
2016-12-29T12:06:41.256Z,1472
2016-12-29T12:08:22.003Z,1472
2016-12-29T12:09:55.619Z,1476
2016-12-29T12:11:47.284Z,1472
2016-12-29T12:13:01.330Z,1468
2016-12-29T12:14:34.771Z,1472
2016-12-29T12:16:08.792Z,1476
2016-12-29T12:17:42.125Z,1476
2016-12-29T12:19:35.380Z,1472
2016-12-29T12:21:08.720Z,1472
2016-12-29T12:22:42.695Z,1472
2016-12-29T12:24:16.537Z,1468
2016-12-29T12:25:50.057Z,1472
2016-12-29T12:27:53.571Z,1472
2016-12-29T12:30:26.176Z,1472
2016-12-29T12:31:59.882Z,1468
2016-12-29T12:34:03.571Z,1472
2016-12-29T12:35:39.766Z,1476
2016-12-29T12:37:13.078Z,1472
2016-12-29T12:38:41.299Z,1476
2016-12-29T12:39:55.859Z,1476
2016-12-29T12:41:51.197Z,1480
2016-12-29T12:43:24.515Z,1480
2016-12-29T12:44:57.866Z,1480
2016-12-29T12:46:31.950Z,1476
2016-12-29T12:48:05.502Z,1476
2016-12-29T12:49:39.504Z,1480
2016-12-29T12:51:37.272Z,1480
